sensor_id;sensor_type;location;lat;lon;timestamp;temperature;humidity
7206;DHT22;3644;53.480;10.004;2024-02-14T00:00:32;9.10;99.90
7206;DHT22;3644;53.480;10.004;2024-02-14T00:02:58;9.20;99.90
7206;DHT22;3644;53.480;10.004;2024-02-14T00:05:23;9.10;99.90
7206;DHT22;3644;53.480;10.004;2024-02-14T00:07:49;9.10;99.90
7206;DHT22;3644;53.480;10.004;2024-02-14T00:10:14;9.20;99.90
7206;DHT22;3644;53.480;10.004;2024-02-14T00:12:40;8.90;99.90
7206;DHT22;3644;53.480;10.004;2024-02-14T00:15:06;9.10;99.90
7206;DHT22;3644;53.480;10.004;2024-02-14T00:17:33;9.00;99.90
7206;DHT22;3644;53.480;10.004;2024-02-14T00:20:02;8.90;99.90
7206;DHT22;3644;53.480;10.004;2024-02-14T00:22:29;8.80;99.90
7206;DHT22;3644;53.480;10.004;2024-02-14T00:24:55;8.90;99.90
7206;DHT22;3644;53.480;10.004;2024-02-14T00:27:21;9.00;99.90
7206;DHT22;3644;53.480;10.004;2024-02-14T00:29:46;8.90;99.90
7206;DHT22;3644;53.480;10.004;2024-02-14T00:32:14;8.90;99.90
7206;DHT22;3644;53.480;10.004;2024-02-14T00:34:40;8.90;99.90
7206;DHT22;3644;53.480;10.004;2024-02-14T00:37:06;8.90;99.90
7206;DHT22;3644;53.480;10.004;2024-02-14T00:39:31;9.00;99.90
7206;DHT22;3644;53.480;10.004;2024-02-14T00:41:57;9.10;99.90
7206;DHT22;3644;53.480;10.004;2024-02-14T00:44:22;9.10;99.90
7206;DHT22;3644;53.480;10.004;2024-02-14T00:46:48;8.90;99.90
7206;DHT22;3644;53.480;10.004;2024-02-14T00:49:14;8.90;99.90
7206;DHT22;3644;53.480;10.004;2024-02-14T00:51:40;8.80;99.90
7206;DHT22;3644;53.480;10.004;2024-02-14T00:54:06;8.90;99.90
7206;DHT22;3644;53.480;10.004;2024-02-14T00:56:32;8.90;99.90
7206;DHT22;3644;53.480;10.004;2024-02-14T00:58:57;9.00;99.90
7206;DHT22;3644;53.480;10.004;2024-02-14T01:01:23;9.00;99.90
7206;DHT22;3644;53.480;10.004;2024-02-14T01:03:49;9.00;99.90
7206;DHT22;3644;53.480;10.004;2024-02-14T01:06:17;9.10;99.90
7206;DHT22;3644;53.480;10.004;2024-02-14T01:08:44;9.20;99.90
7206;DHT22;3644;53.480;10.004;2024-02-14T01:11:09;9.00;99.90
7206;DHT22;3644;53.480;10.004;2024-02-14T01:13:35;9.00;99.90
7206;DHT22;3644;53.480;10.004;2024-02-14T01:16:00;9.00;99.90
7206;DHT22;3644;53.480;10.004;2024-02-14T01:18:26;9.00;99.90
7206;DHT22;3644;53.480;10.004;2024-02-14T01:20:51;9.20;99.90
7206;DHT22;3644;53.480;10.004;2024-02-14T01:23:17;9.00;99.90
7206;DHT22;3644;53.480;10.004;2024-02-14T01:25:42;9.00;99.90
7206;DHT22;3644;53.480;10.004;2024-02-14T01:28:09;9.10;99.90
7206;DHT22;3644;53.480;10.004;2024-02-14T01:30:34;9.10;99.90
7206;DHT22;3644;53.480;10.004;2024-02-14T01:33:01;9.10;99.90
7206;DHT22;3644;53.480;10.004;2024-02-14T01:35:29;9.10;99.90
7206;DHT22;3644;53.480;10.004;2024-02-14T01:37:54;9.10;99.90
7206;DHT22;3644;53.480;10.004;2024-02-14T01:40:20;9.10;99.90
7206;DHT22;3644;53.480;10.004;2024-02-14T01:42:46;9.00;99.90
7206;DHT22;3644;53.480;10.004;2024-02-14T01:45:11;9.00;99.90
7206;DHT22;3644;53.480;10.004;2024-02-14T01:47:37;9.00;99.90
7206;DHT22;3644;53.480;10.004;2024-02-14T01:50:07;9.10;99.90
7206;DHT22;3644;53.480;10.004;2024-02-14T01:52:36;9.10;99.90
7206;DHT22;3644;53.480;10.004;2024-02-14T01:55:04;9.20;99.90
7206;DHT22;3644;53.480;10.004;2024-02-14T01:57:31;9.20;99.90
7206;DHT22;3644;53.480;10.004;2024-02-14T01:59:58;9.10;99.90
7206;DHT22;3644;53.480;10.004;2024-02-14T02:02:26;9.10;99.90
7206;DHT22;3644;53.480;10.004;2024-02-14T02:04:52;9.20;99.90
7206;DHT22;3644;53.480;10.004;2024-02-14T02:07:18;9.10;99.90
7206;DHT22;3644;53.480;10.004;2024-02-14T02:09:45;9.10;99.90
7206;DHT22;3644;53.480;10.004;2024-02-14T02:12:10;9.20;99.90
7206;DHT22;3644;53.480;10.004;2024-02-14T02:14:36;9.10;99.90
7206;DHT22;3644;53.480;10.004;2024-02-14T02:17:01;9.20;99.90
7206;DHT22;3644;53.480;10.004;2024-02-14T02:19:27;9.10;99.90
7206;DHT22;3644;53.480;10.004;2024-02-14T02:21:52;9.10;99.90
7206;DHT22;3644;53.480;10.004;2024-02-14T02:24:18;9.10;99.90
7206;DHT22;3644;53.480;10.004;2024-02-14T02:26:44;9.20;99.90
7206;DHT22;3644;53.480;10.004;2024-02-14T02:29:10;9.00;99.90
7206;DHT22;3644;53.480;10.004;2024-02-14T02:31:35;9.00;99.90
7206;DHT22;3644;53.480;10.004;2024-02-14T02:34:02;9.00;99.90
7206;DHT22;3644;53.480;10.004;2024-02-14T02:36:27;9.00;99.90
7206;DHT22;3644;53.480;10.004;2024-02-14T02:38:55;9.10;99.90
7206;DHT22;3644;53.480;10.004;2024-02-14T02:41:21;9.00;99.90
7206;DHT22;3644;53.480;10.004;2024-02-14T02:43:47;9.00;99.90
7206;DHT22;3644;53.480;10.004;2024-02-14T02:46:15;9.00;99.90
7206;DHT22;3644;53.480;10.004;2024-02-14T02:48:40;9.10;99.90
7206;DHT22;3644;53.480;10.004;2024-02-14T02:51:06;9.00;99.90
7206;DHT22;3644;53.480;10.004;2024-02-14T02:53:32;9.00;99.90
7206;DHT22;3644;53.480;10.004;2024-02-14T02:55:57;9.00;99.90
7206;DHT22;3644;53.480;10.004;2024-02-14T02:58:25;8.90;99.90
7206;DHT22;3644;53.480;10.004;2024-02-14T03:00:50;8.90;99.90
7206;DHT22;3644;53.480;10.004;2024-02-14T03:03:16;8.90;99.90
7206;DHT22;3644;53.480;10.004;2024-02-14T03:05:42;8.90;99.90
7206;DHT22;3644;53.480;10.004;2024-02-14T03:08:09;9.00;99.90
7206;DHT22;3644;53.480;10.004;2024-02-14T03:10:39;8.90;99.90
7206;DHT22;3644;53.480;10.004;2024-02-14T03:13:06;8.90;99.90
7206;DHT22;3644;53.480;10.004;2024-02-14T03:15:33;8.90;99.90
7206;DHT22;3644;53.480;10.004;2024-02-14T03:17:59;8.90;99.90
7206;DHT22;3644;53.480;10.004;2024-02-14T03:20:24;9.00;99.90
7206;DHT22;3644;53.480;10.004;2024-02-14T03:22:50;9.00;99.90
7206;DHT22;3644;53.480;10.004;2024-02-14T03:25:19;9.00;99.90
7206;DHT22;3644;53.480;10.004;2024-02-14T03:27:45;8.80;99.90
7206;DHT22;3644;53.480;10.004;2024-02-14T03:30:13;8.90;99.90
7206;DHT22;3644;53.480;10.004;2024-02-14T03:32:44;9.00;99.90
7206;DHT22;3644;53.480;10.004;2024-02-14T03:35:11;9.00;99.90
7206;DHT22;3644;53.480;10.004;2024-02-14T03:37:38;9.00;99.90
7206;DHT22;3644;53.480;10.004;2024-02-14T03:40:05;9.00;99.90
7206;DHT22;3644;53.480;10.004;2024-02-14T03:42:30;9.00;99.90
7206;DHT22;3644;53.480;10.004;2024-02-14T03:44:56;9.00;99.90
7206;DHT22;3644;53.480;10.004;2024-02-14T03:47:28;9.00;99.90
7206;DHT22;3644;53.480;10.004;2024-02-14T03:49:54;8.90;99.90
7206;DHT22;3644;53.480;10.004;2024-02-14T03:52:20;9.00;99.90
7206;DHT22;3644;53.480;10.004;2024-02-14T03:54:47;8.90;99.90
7206;DHT22;3644;53.480;10.004;2024-02-14T03:57:13;9.00;99.90
7206;DHT22;3644;53.480;10.004;2024-02-14T03:59:38;9.00;99.90
7206;DHT22;3644;53.480;10.004;2024-02-14T04:02:04;9.00;99.90
7206;DHT22;3644;53.480;10.004;2024-02-14T04:04:32;8.90;99.90
7206;DHT22;3644;53.480;10.004;2024-02-14T04:06:58;8.90;99.90
7206;DHT22;3644;53.480;10.004;2024-02-14T04:09:26;9.00;99.90
7206;DHT22;3644;53.480;10.004;2024-02-14T04:11:51;9.00;99.90
7206;DHT22;3644;53.480;10.004;2024-02-14T04:14:17;9.00;99.90
7206;DHT22;3644;53.480;10.004;2024-02-14T04:16:43;9.00;99.90
7206;DHT22;3644;53.480;10.004;2024-02-14T04:19:08;8.90;99.90
7206;DHT22;3644;53.480;10.004;2024-02-14T04:21:37;9.00;99.90
7206;DHT22;3644;53.480;10.004;2024-02-14T04:24:03;9.10;99.90
7206;DHT22;3644;53.480;10.004;2024-02-14T04:26:29;9.10;99.90
7206;DHT22;3644;53.480;10.004;2024-02-14T04:28:54;9.20;99.90
7206;DHT22;3644;53.480;10.004;2024-02-14T04:31:20;9.10;99.90
7206;DHT22;3644;53.480;10.004;2024-02-14T04:33:45;9.10;99.90
7206;DHT22;3644;53.480;10.004;2024-02-14T04:36:20;9.10;99.90
7206;DHT22;3644;53.480;10.004;2024-02-14T04:38:47;9.10;99.90
7206;DHT22;3644;53.480;10.004;2024-02-14T04:41:13;9.20;99.90
7206;DHT22;3644;53.480;10.004;2024-02-14T04:43:39;9.10;99.90
7206;DHT22;3644;53.480;10.004;2024-02-14T04:46:05;9.20;99.90
7206;DHT22;3644;53.480;10.004;2024-02-14T04:48:33;9.10;99.90
7206;DHT22;3644;53.480;10.004;2024-02-14T04:50:58;9.10;99.90
7206;DHT22;3644;53.480;10.004;2024-02-14T04:53:24;9.00;99.90
7206;DHT22;3644;53.480;10.004;2024-02-14T04:55:50;9.00;99.90
7206;DHT22;3644;53.480;10.004;2024-02-14T04:58:15;9.00;99.90
7206;DHT22;3644;53.480;10.004;2024-02-14T05:00:41;9.10;99.90
7206;DHT22;3644;53.480;10.004;2024-02-14T05:03:07;9.10;99.90
7206;DHT22;3644;53.480;10.004;2024-02-14T05:05:32;9.10;99.90
7206;DHT22;3644;53.480;10.004;2024-02-14T05:07:59;9.10;99.90
7206;DHT22;3644;53.480;10.004;2024-02-14T05:10:24;9.10;99.90
7206;DHT22;3644;53.480;10.004;2024-02-14T05:12:50;9.10;99.90
7206;DHT22;3644;53.480;10.004;2024-02-14T05:15:16;9.10;99.90
7206;DHT22;3644;53.480;10.004;2024-02-14T05:17:44;9.10;99.90
7206;DHT22;3644;53.480;10.004;2024-02-14T05:20:10;9.10;99.90
7206;DHT22;3644;53.480;10.004;2024-02-14T05:22:37;9.00;99.90
7206;DHT22;3644;53.480;10.004;2024-02-14T05:25:03;9.00;99.90
7206;DHT22;3644;53.480;10.004;2024-02-14T05:27:30;9.00;99.90
7206;DHT22;3644;53.480;10.004;2024-02-14T05:29:55;8.90;99.90
7206;DHT22;3644;53.480;10.004;2024-02-14T05:32:21;9.20;99.90
7206;DHT22;3644;53.480;10.004;2024-02-14T05:34:46;9.10;99.90
7206;DHT22;3644;53.480;10.004;2024-02-14T05:37:12;9.20;99.90
7206;DHT22;3644;53.480;10.004;2024-02-14T05:39:38;9.00;99.90
7206;DHT22;3644;53.480;10.004;2024-02-14T05:42:04;9.00;99.90
7206;DHT22;3644;53.480;10.004;2024-02-14T05:44:30;9.00;99.90
7206;DHT22;3644;53.480;10.004;2024-02-14T05:46:56;9.00;99.90
7206;DHT22;3644;53.480;10.004;2024-02-14T05:49:22;8.90;99.90
7206;DHT22;3644;53.480;10.004;2024-02-14T05:51:47;9.00;99.90
7206;DHT22;3644;53.480;10.004;2024-02-14T05:54:13;9.10;99.90
7206;DHT22;3644;53.480;10.004;2024-02-14T05:56:38;9.10;99.90
7206;DHT22;3644;53.480;10.004;2024-02-14T05:59:04;9.30;99.90
7206;DHT22;3644;53.480;10.004;2024-02-14T06:01:30;9.00;99.90
7206;DHT22;3644;53.480;10.004;2024-02-14T06:03:55;9.10;99.90
7206;DHT22;3644;53.480;10.004;2024-02-14T06:06:21;9.20;99.90
7206;DHT22;3644;53.480;10.004;2024-02-14T06:08:46;9.20;99.90
7206;DHT22;3644;53.480;10.004;2024-02-14T06:11:12;9.00;99.90
7206;DHT22;3644;53.480;10.004;2024-02-14T06:13:39;9.10;99.90
7206;DHT22;3644;53.480;10.004;2024-02-14T06:16:05;9.10;99.90
7206;DHT22;3644;53.480;10.004;2024-02-14T06:18:31;9.30;99.90
7206;DHT22;3644;53.480;10.004;2024-02-14T06:20:56;9.40;99.90
7206;DHT22;3644;53.480;10.004;2024-02-14T06:23:22;9.50;99.90
7206;DHT22;3644;53.480;10.004;2024-02-14T06:25:47;9.30;99.90
7206;DHT22;3644;53.480;10.004;2024-02-14T06:28:12;9.30;99.90
7206;DHT22;3644;53.480;10.004;2024-02-14T06:30:38;9.30;99.90
7206;DHT22;3644;53.480;10.004;2024-02-14T06:33:03;9.40;99.90
7206;DHT22;3644;53.480;10.004;2024-02-14T06:35:30;9.50;99.90
7206;DHT22;3644;53.480;10.004;2024-02-14T06:37:55;9.50;99.90
7206;DHT22;3644;53.480;10.004;2024-02-14T06:40:21;9.50;99.90
7206;DHT22;3644;53.480;10.004;2024-02-14T06:42:47;9.50;99.90
7206;DHT22;3644;53.480;10.004;2024-02-14T06:45:16;9.40;99.90
7206;DHT22;3644;53.480;10.004;2024-02-14T06:47:41;9.50;99.90
7206;DHT22;3644;53.480;10.004;2024-02-14T06:50:07;9.50;99.90
7206;DHT22;3644;53.480;10.004;2024-02-14T06:52:33;9.60;99.90
7206;DHT22;3644;53.480;10.004;2024-02-14T06:54:59;9.50;99.90
7206;DHT22;3644;53.480;10.004;2024-02-14T06:57:25;9.90;99.90
7206;DHT22;3644;53.480;10.004;2024-02-14T06:59:50;10.10;99.90
7206;DHT22;3644;53.480;10.004;2024-02-14T07:02:16;10.30;99.90
7206;DHT22;3644;53.480;10.004;2024-02-14T07:04:41;10.60;99.90
7206;DHT22;3644;53.480;10.004;2024-02-14T07:07:07;10.70;99.90
7206;DHT22;3644;53.480;10.004;2024-02-14T07:09:33;10.60;99.90
7206;DHT22;3644;53.480;10.004;2024-02-14T07:12:01;10.50;99.90
7206;DHT22;3644;53.480;10.004;2024-02-14T07:14:26;10.40;99.90
7206;DHT22;3644;53.480;10.004;2024-02-14T07:16:52;10.40;99.90
7206;DHT22;3644;53.480;10.004;2024-02-14T07:19:18;10.30;99.90
7206;DHT22;3644;53.480;10.004;2024-02-14T07:21:43;10.30;99.90
7206;DHT22;3644;53.480;10.004;2024-02-14T07:24:09;10.20;99.90
7206;DHT22;3644;53.480;10.004;2024-02-14T07:26:34;10.20;99.90
7206;DHT22;3644;53.480;10.004;2024-02-14T07:29:00;10.10;99.90
7206;DHT22;3644;53.480;10.004;2024-02-14T07:31:29;10.10;99.90
7206;DHT22;3644;53.480;10.004;2024-02-14T07:33:59;10.10;99.90
7206;DHT22;3644;53.480;10.004;2024-02-14T07:36:24;10.10;99.90
7206;DHT22;3644;53.480;10.004;2024-02-14T07:38:50;10.10;99.90
7206;DHT22;3644;53.480;10.004;2024-02-14T07:41:15;10.10;99.90
7206;DHT22;3644;53.480;10.004;2024-02-14T07:43:41;10.00;99.90
7206;DHT22;3644;53.480;10.004;2024-02-14T07:46:06;10.00;99.90
7206;DHT22;3644;53.480;10.004;2024-02-14T07:48:33;10.10;99.90
7206;DHT22;3644;53.480;10.004;2024-02-14T07:50:58;10.20;99.90
7206;DHT22;3644;53.480;10.004;2024-02-14T07:53:25;10.20;99.90
7206;DHT22;3644;53.480;10.004;2024-02-14T07:55:51;10.10;99.90
7206;DHT22;3644;53.480;10.004;2024-02-14T07:58:16;10.20;99.90
7206;DHT22;3644;53.480;10.004;2024-02-14T08:00:42;10.20;99.90
7206;DHT22;3644;53.480;10.004;2024-02-14T08:03:07;10.00;99.90
7206;DHT22;3644;53.480;10.004;2024-02-14T08:05:33;10.00;99.90
7206;DHT22;3644;53.480;10.004;2024-02-14T08:07:59;10.10;99.90
7206;DHT22;3644;53.480;10.004;2024-02-14T08:10:24;10.20;99.90
7206;DHT22;3644;53.480;10.004;2024-02-14T08:12:50;10.20;99.90
7206;DHT22;3644;53.480;10.004;2024-02-14T08:15:16;10.30;99.90
7206;DHT22;3644;53.480;10.004;2024-02-14T08:17:41;10.30;99.90
7206;DHT22;3644;53.480;10.004;2024-02-14T08:20:07;10.30;99.90
7206;DHT22;3644;53.480;10.004;2024-02-14T08:22:33;10.40;99.90
7206;DHT22;3644;53.480;10.004;2024-02-14T08:24:59;10.40;99.90
7206;DHT22;3644;53.480;10.004;2024-02-14T08:27:24;10.30;99.90
7206;DHT22;3644;53.480;10.004;2024-02-14T08:29:51;10.30;99.90
7206;DHT22;3644;53.480;10.004;2024-02-14T08:32:16;10.40;99.90
7206;DHT22;3644;53.480;10.004;2024-02-14T08:34:42;10.50;99.90
7206;DHT22;3644;53.480;10.004;2024-02-14T08:37:07;10.50;99.90
7206;DHT22;3644;53.480;10.004;2024-02-14T08:39:33;10.50;99.90
7206;DHT22;3644;53.480;10.004;2024-02-14T08:41:59;10.50;99.90
7206;DHT22;3644;53.480;10.004;2024-02-14T08:44:28;10.60;99.90
7206;DHT22;3644;53.480;10.004;2024-02-14T08:46:54;10.60;99.90
7206;DHT22;3644;53.480;10.004;2024-02-14T08:49:20;10.80;99.90
7206;DHT22;3644;53.480;10.004;2024-02-14T08:51:45;10.90;99.90
7206;DHT22;3644;53.480;10.004;2024-02-14T08:54:12;11.00;99.90
7206;DHT22;3644;53.480;10.004;2024-02-14T08:56:41;11.30;99.90
7206;DHT22;3644;53.480;10.004;2024-02-14T08:59:06;11.50;99.90
7206;DHT22;3644;53.480;10.004;2024-02-14T09:01:32;11.60;99.90
7206;DHT22;3644;53.480;10.004;2024-02-14T09:03:58;11.60;99.90
7206;DHT22;3644;53.480;10.004;2024-02-14T09:06:24;11.80;99.90
7206;DHT22;3644;53.480;10.004;2024-02-14T09:08:52;11.70;99.90
7206;DHT22;3644;53.480;10.004;2024-02-14T09:11:17;11.80;99.90
7206;DHT22;3644;53.480;10.004;2024-02-14T09:13:43;11.70;99.90
7206;DHT22;3644;53.480;10.004;2024-02-14T09:16:09;11.50;99.90
7206;DHT22;3644;53.480;10.004;2024-02-14T09:18:36;11.50;99.90
7206;DHT22;3644;53.480;10.004;2024-02-14T09:21:02;11.50;99.90
7206;DHT22;3644;53.480;10.004;2024-02-14T09:23:30;11.30;99.90
7206;DHT22;3644;53.480;10.004;2024-02-14T09:25:56;11.40;99.90
7206;DHT22;3644;53.480;10.004;2024-02-14T09:28:22;11.50;99.90
7206;DHT22;3644;53.480;10.004;2024-02-14T09:30:48;11.50;99.90
7206;DHT22;3644;53.480;10.004;2024-02-14T09:33:13;11.50;99.90
7206;DHT22;3644;53.480;10.004;2024-02-14T09:35:39;11.60;99.90
7206;DHT22;3644;53.480;10.004;2024-02-14T09:38:10;11.80;99.90
7206;DHT22;3644;53.480;10.004;2024-02-14T09:40:36;11.90;99.90
7206;DHT22;3644;53.480;10.004;2024-02-14T09:43:04;11.90;99.90
7206;DHT22;3644;53.480;10.004;2024-02-14T09:45:30;12.00;99.90
7206;DHT22;3644;53.480;10.004;2024-02-14T09:47:59;11.90;99.90
7206;DHT22;3644;53.480;10.004;2024-02-14T09:50:26;12.00;99.90
7206;DHT22;3644;53.480;10.004;2024-02-14T09:52:54;12.10;99.90
7206;DHT22;3644;53.480;10.004;2024-02-14T09:55:20;12.10;99.90
7206;DHT22;3644;53.480;10.004;2024-02-14T09:57:49;12.00;99.90
7206;DHT22;3644;53.480;10.004;2024-02-14T10:00:15;12.10;99.90
7206;DHT22;3644;53.480;10.004;2024-02-14T10:02:41;12.10;99.90
7206;DHT22;3644;53.480;10.004;2024-02-14T10:05:07;12.00;99.90
7206;DHT22;3644;53.480;10.004;2024-02-14T10:07:40;12.10;99.90
7206;DHT22;3644;53.480;10.004;2024-02-14T10:10:06;12.20;99.90
7206;DHT22;3644;53.480;10.004;2024-02-14T10:12:32;11.90;99.90
7206;DHT22;3644;53.480;10.004;2024-02-14T10:14:58;12.00;99.90
7206;DHT22;3644;53.480;10.004;2024-02-14T10:17:23;12.20;99.90
7206;DHT22;3644;53.480;10.004;2024-02-14T10:19:59;12.20;99.90
7206;DHT22;3644;53.480;10.004;2024-02-14T10:22:32;12.30;99.90
7206;DHT22;3644;53.480;10.004;2024-02-14T10:24:57;12.50;99.90
7206;DHT22;3644;53.480;10.004;2024-02-14T10:27:22;12.60;99.90
7206;DHT22;3644;53.480;10.004;2024-02-14T10:29:48;12.40;99.90
7206;DHT22;3644;53.480;10.004;2024-02-14T10:32:16;12.50;99.90
7206;DHT22;3644;53.480;10.004;2024-02-14T10:34:43;12.60;99.90
7206;DHT22;3644;53.480;10.004;2024-02-14T10:37:14;12.80;99.90
7206;DHT22;3644;53.480;10.004;2024-02-14T10:39:41;12.70;99.90
7206;DHT22;3644;53.480;10.004;2024-02-14T10:42:07;12.80;99.90
7206;DHT22;3644;53.480;10.004;2024-02-14T10:44:32;12.60;99.90
7206;DHT22;3644;53.480;10.004;2024-02-14T10:47:00;12.70;99.90
7206;DHT22;3644;53.480;10.004;2024-02-14T10:49:29;12.90;99.90
7206;DHT22;3644;53.480;10.004;2024-02-14T10:51:56;13.10;99.90
7206;DHT22;3644;53.480;10.004;2024-02-14T10:54:25;13.00;99.90
7206;DHT22;3644;53.480;10.004;2024-02-14T10:56:52;12.90;99.90
7206;DHT22;3644;53.480;10.004;2024-02-14T10:59:20;13.00;99.90
7206;DHT22;3644;53.480;10.004;2024-02-14T11:01:48;12.80;99.90
7206;DHT22;3644;53.480;10.004;2024-02-14T11:04:14;12.90;99.90
7206;DHT22;3644;53.480;10.004;2024-02-14T11:06:47;13.00;99.90
7206;DHT22;3644;53.480;10.004;2024-02-14T11:09:13;12.90;99.90
7206;DHT22;3644;53.480;10.004;2024-02-14T11:11:58;13.00;99.90
7206;DHT22;3644;53.480;10.004;2024-02-14T11:14:23;13.10;99.90
7206;DHT22;3644;53.480;10.004;2024-02-14T11:16:52;13.20;99.90
7206;DHT22;3644;53.480;10.004;2024-02-14T11:19:17;13.30;99.90
7206;DHT22;3644;53.480;10.004;2024-02-14T11:21:46;13.20;99.90
7206;DHT22;3644;53.480;10.004;2024-02-14T11:24:13;13.30;99.90
7206;DHT22;3644;53.480;10.004;2024-02-14T11:26:49;13.30;99.90
7206;DHT22;3644;53.480;10.004;2024-02-14T11:29:19;13.10;99.90
7206;DHT22;3644;53.480;10.004;2024-02-14T11:31:45;13.10;99.90
7206;DHT22;3644;53.480;10.004;2024-02-14T11:34:12;13.20;99.90
7206;DHT22;3644;53.480;10.004;2024-02-14T11:36:38;13.40;99.90
7206;DHT22;3644;53.480;10.004;2024-02-14T11:39:04;13.40;99.90
7206;DHT22;3644;53.480;10.004;2024-02-14T11:41:33;13.40;99.90
7206;DHT22;3644;53.480;10.004;2024-02-14T11:44:05;13.40;99.90
7206;DHT22;3644;53.480;10.004;2024-02-14T11:46:35;13.50;99.90
7206;DHT22;3644;53.480;10.004;2024-02-14T11:49:02;13.40;99.90
7206;DHT22;3644;53.480;10.004;2024-02-14T11:51:29;13.30;99.90
7206;DHT22;3644;53.480;10.004;2024-02-14T11:53:56;13.40;99.90
7206;DHT22;3644;53.480;10.004;2024-02-14T11:56:22;13.30;99.90
7206;DHT22;3644;53.480;10.004;2024-02-14T11:58:48;13.40;99.90
7206;DHT22;3644;53.480;10.004;2024-02-14T12:01:19;13.20;99.90
7206;DHT22;3644;53.480;10.004;2024-02-14T12:03:45;13.30;99.90
7206;DHT22;3644;53.480;10.004;2024-02-14T12:06:11;13.50;99.90
7206;DHT22;3644;53.480;10.004;2024-02-14T12:08:37;13.50;99.90
7206;DHT22;3644;53.480;10.004;2024-02-14T12:11:03;13.50;99.90
7206;DHT22;3644;53.480;10.004;2024-02-14T12:13:30;13.50;99.90
7206;DHT22;3644;53.480;10.004;2024-02-14T12:15:58;13.50;99.90
7206;DHT22;3644;53.480;10.004;2024-02-14T12:18:23;13.30;99.90
7206;DHT22;3644;53.480;10.004;2024-02-14T12:20:49;13.10;99.90
7206;DHT22;3644;53.480;10.004;2024-02-14T12:23:17;13.30;99.90
7206;DHT22;3644;53.480;10.004;2024-02-14T12:25:42;13.30;99.90
7206;DHT22;3644;53.480;10.004;2024-02-14T12:28:08;13.30;99.90
7206;DHT22;3644;53.480;10.004;2024-02-14T12:30:47;13.50;99.90
7206;DHT22;3644;53.480;10.004;2024-02-14T12:33:15;13.40;99.90
7206;DHT22;3644;53.480;10.004;2024-02-14T12:35:46;13.60;99.90
7206;DHT22;3644;53.480;10.004;2024-02-14T12:38:12;13.70;99.90
7206;DHT22;3644;53.480;10.004;2024-02-14T12:40:39;13.70;99.90
7206;DHT22;3644;53.480;10.004;2024-02-14T12:43:08;13.50;99.90
7206;DHT22;3644;53.480;10.004;2024-02-14T12:45:34;13.60;99.90
7206;DHT22;3644;53.480;10.004;2024-02-14T12:48:00;13.80;99.90
7206;DHT22;3644;53.480;10.004;2024-02-14T12:50:25;13.70;99.90
7206;DHT22;3644;53.480;10.004;2024-02-14T12:52:51;13.80;99.90
7206;DHT22;3644;53.480;10.004;2024-02-14T12:55:17;13.80;99.90
7206;DHT22;3644;53.480;10.004;2024-02-14T12:57:44;14.00;99.90
7206;DHT22;3644;53.480;10.004;2024-02-14T13:00:10;13.90;99.90
7206;DHT22;3644;53.480;10.004;2024-02-14T13:02:36;13.80;99.90
7206;DHT22;3644;53.480;10.004;2024-02-14T13:05:04;13.80;99.90
7206;DHT22;3644;53.480;10.004;2024-02-14T13:07:33;13.90;99.90
7206;DHT22;3644;53.480;10.004;2024-02-14T13:09:59;13.80;99.90
7206;DHT22;3644;53.480;10.004;2024-02-14T13:12:25;14.10;99.90
7206;DHT22;3644;53.480;10.004;2024-02-14T13:14:51;14.10;99.90
7206;DHT22;3644;53.480;10.004;2024-02-14T13:17:17;14.20;99.90
7206;DHT22;3644;53.480;10.004;2024-02-14T13:19:42;14.20;99.90
7206;DHT22;3644;53.480;10.004;2024-02-14T13:22:09;13.80;99.90
7206;DHT22;3644;53.480;10.004;2024-02-14T13:24:34;13.90;99.90
7206;DHT22;3644;53.480;10.004;2024-02-14T13:27:00;14.00;99.90
7206;DHT22;3644;53.480;10.004;2024-02-14T13:29:25;14.10;99.90
7206;DHT22;3644;53.480;10.004;2024-02-14T13:31:51;14.00;99.90
7206;DHT22;3644;53.480;10.004;2024-02-14T13:34:17;14.00;99.90
7206;DHT22;3644;53.480;10.004;2024-02-14T13:36:45;13.80;99.90
7206;DHT22;3644;53.480;10.004;2024-02-14T13:39:10;13.80;99.90
7206;DHT22;3644;53.480;10.004;2024-02-14T13:41:37;13.90;99.90
7206;DHT22;3644;53.480;10.004;2024-02-14T13:44:06;13.90;99.90
7206;DHT22;3644;53.480;10.004;2024-02-14T13:46:33;14.00;99.90
7206;DHT22;3644;53.480;10.004;2024-02-14T13:48:59;14.10;99.90
7206;DHT22;3644;53.480;10.004;2024-02-14T13:51:24;14.00;99.90
7206;DHT22;3644;53.480;10.004;2024-02-14T13:53:50;14.30;99.90
7206;DHT22;3644;53.480;10.004;2024-02-14T13:56:15;14.40;99.90
7206;DHT22;3644;53.480;10.004;2024-02-14T13:58:42;14.40;99.90
7206;DHT22;3644;53.480;10.004;2024-02-14T14:01:07;14.50;99.90
7206;DHT22;3644;53.480;10.004;2024-02-14T14:03:33;14.20;99.90
7206;DHT22;3644;53.480;10.004;2024-02-14T14:06:02;14.30;99.90
7206;DHT22;3644;53.480;10.004;2024-02-14T14:08:28;14.40;99.90
7206;DHT22;3644;53.480;10.004;2024-02-14T14:10:53;14.30;99.90
7206;DHT22;3644;53.480;10.004;2024-02-14T14:13:19;14.40;99.90
7206;DHT22;3644;53.480;10.004;2024-02-14T14:15:45;14.40;99.90
7206;DHT22;3644;53.480;10.004;2024-02-14T14:18:10;14.40;99.90
7206;DHT22;3644;53.480;10.004;2024-02-14T14:20:36;14.40;99.90
7206;DHT22;3644;53.480;10.004;2024-02-14T14:23:02;14.00;99.90
7206;DHT22;3644;53.480;10.004;2024-02-14T14:25:29;14.00;99.90
7206;DHT22;3644;53.480;10.004;2024-02-14T14:27:57;14.10;99.90
7206;DHT22;3644;53.480;10.004;2024-02-14T14:30:23;14.20;99.90
7206;DHT22;3644;53.480;10.004;2024-02-14T14:32:49;14.40;99.90
7206;DHT22;3644;53.480;10.004;2024-02-14T14:35:14;14.40;99.90
7206;DHT22;3644;53.480;10.004;2024-02-14T14:37:40;14.50;99.90
7206;DHT22;3644;53.480;10.004;2024-02-14T14:40:06;14.40;99.90
7206;DHT22;3644;53.480;10.004;2024-02-14T14:42:33;14.30;99.90
7206;DHT22;3644;53.480;10.004;2024-02-14T14:44:58;14.30;99.90
7206;DHT22;3644;53.480;10.004;2024-02-14T14:47:24;14.00;99.90
7206;DHT22;3644;53.480;10.004;2024-02-14T14:49:49;13.90;99.90
7206;DHT22;3644;53.480;10.004;2024-02-14T14:52:15;13.80;99.90
7206;DHT22;3644;53.480;10.004;2024-02-14T14:54:40;14.00;99.90
7206;DHT22;3644;53.480;10.004;2024-02-14T14:57:06;14.10;99.90
7206;DHT22;3644;53.480;10.004;2024-02-14T14:59:37;14.20;99.90
7206;DHT22;3644;53.480;10.004;2024-02-14T15:02:02;14.30;99.90
7206;DHT22;3644;53.480;10.004;2024-02-14T15:04:28;14.30;99.90
7206;DHT22;3644;53.480;10.004;2024-02-14T15:06:53;14.50;99.90
7206;DHT22;3644;53.480;10.004;2024-02-14T15:09:20;14.50;99.90
7206;DHT22;3644;53.480;10.004;2024-02-14T15:11:46;14.60;99.90
7206;DHT22;3644;53.480;10.004;2024-02-14T15:14:12;14.50;99.90
7206;DHT22;3644;53.480;10.004;2024-02-14T15:16:37;14.50;99.90
7206;DHT22;3644;53.480;10.004;2024-02-14T15:19:03;14.50;99.90
7206;DHT22;3644;53.480;10.004;2024-02-14T15:21:28;14.40;99.90
7206;DHT22;3644;53.480;10.004;2024-02-14T15:23:54;14.40;99.90
7206;DHT22;3644;53.480;10.004;2024-02-14T15:26:19;14.40;99.90
7206;DHT22;3644;53.480;10.004;2024-02-14T15:28:49;14.20;99.90
7206;DHT22;3644;53.480;10.004;2024-02-14T15:31:23;13.90;99.90
7206;DHT22;3644;53.480;10.004;2024-02-14T15:34:07;14.10;99.90
7206;DHT22;3644;53.480;10.004;2024-02-14T15:36:33;14.20;99.90
7206;DHT22;3644;53.480;10.004;2024-02-14T15:38:58;14.40;99.90
7206;DHT22;3644;53.480;10.004;2024-02-14T15:41:25;14.30;99.90
7206;DHT22;3644;53.480;10.004;2024-02-14T15:43:50;14.30;99.90
7206;DHT22;3644;53.480;10.004;2024-02-14T15:46:16;14.40;99.90